ACK Airport (Nantucket Memorial) Information

FAA: ACK - ICAO: KACK

ACK Airport Location

State Massachusetts
County Nantucket
City Nantucket
ACK Airport is 3 miles southeast of Nantucket, MA.
Latitude 41-15-10.7102N
Longitude 070-03-35.6811W
Elevation 47ft

KACK Airport METARs

METAR KACK 121522Z 33006KT 10SM BKN010 OVC016 23/21 A2995 RMK AO2 T02330206
Altimeter 29.95"
Temperature 23.3°C (73.9°F)
Wind 330° at 6KT
Clouds broken at 1,000ft overcast at 1,600ft
Visibility 10.0mi
Time observed: 2022-08-12T15:22:00Z

ACK Airport Details

Status Operational
Activation April 1940
Ownership Public
Usage Public
Chart NEW YORK
ATC on-site Yes
Beacon schedule sunset-sunrise
Beacon color clear green

ACK Airport Contacts

Owner TOWN OF NANTUCKET
Owner address SELECTMAN'S OFFICE, NANTUCKET, MA 02554
Owner phone N/A
Manager W. SCOTT LAFORGE
Manager address 24 FLUME AVE, MARSTONS MILLS, MA 02648
Manager phone 508-428-8148

ACK Airport (Nantucket Memorial) Radio Frequencies

ACK (Airport) Radio Frequencies

UNICOM 122.95
Common traffic advisory frequency (CTAF) 118.3